sensor_id;sensor_type;location;lat;lon;timestamp;temperature;humidity
13806;DHT22;6974;53.606;9.872;2022-07-23T00:00:11;18.30;99.90
13806;DHT22;6974;53.606;9.872;2022-07-23T00:02:40;18.30;99.90
13806;DHT22;6974;53.606;9.872;2022-07-23T00:05:07;18.30;99.90
13806;DHT22;6974;53.606;9.872;2022-07-23T00:07:34;18.30;99.90
13806;DHT22;6974;53.606;9.872;2022-07-23T00:10:01;18.30;99.90
13806;DHT22;6974;53.606;9.872;2022-07-23T00:12:28;18.30;99.90
13806;DHT22;6974;53.606;9.872;2022-07-23T00:14:55;18.20;99.90
13806;DHT22;6974;53.606;9.872;2022-07-23T00:17:21;18.30;99.90
13806;DHT22;6974;53.606;9.872;2022-07-23T00:19:49;18.30;99.90
13806;DHT22;6974;53.606;9.872;2022-07-23T00:22:16;18.30;99.90
13806;DHT22;6974;53.606;9.872;2022-07-23T00:24:43;18.20;99.90
13806;DHT22;6974;53.606;9.872;2022-07-23T00:27:10;18.20;99.90
13806;DHT22;6974;53.606;9.872;2022-07-23T00:29:37;18.20;99.90
13806;DHT22;6974;53.606;9.872;2022-07-23T00:32:04;18.20;99.90
13806;DHT22;6974;53.606;9.872;2022-07-23T00:34:31;18.10;99.90
13806;DHT22;6974;53.606;9.872;2022-07-23T00:36:59;18.10;99.90
13806;DHT22;6974;53.606;9.872;2022-07-23T00:39:26;18.10;99.90
13806;DHT22;6974;53.606;9.872;2022-07-23T00:41:53;18.10;99.90
13806;DHT22;6974;53.606;9.872;2022-07-23T00:44:21;18.00;99.90
13806;DHT22;6974;53.606;9.872;2022-07-23T00:46:50;18.00;99.90
13806;DHT22;6974;53.606;9.872;2022-07-23T00:49:18;18.00;99.90
13806;DHT22;6974;53.606;9.872;2022-07-23T00:51:45;18.00;99.90
13806;DHT22;6974;53.606;9.872;2022-07-23T00:54:13;18.00;99.90
13806;DHT22;6974;53.606;9.872;2022-07-23T00:56:41;18.00;99.90
13806;DHT22;6974;53.606;9.872;2022-07-23T00:59:09;18.00;99.90
13806;DHT22;6974;53.606;9.872;2022-07-23T01:01:36;17.90;99.90
13806;DHT22;6974;53.606;9.872;2022-07-23T01:04:03;17.90;99.90
13806;DHT22;6974;53.606;9.872;2022-07-23T01:06:30;17.90;99.90
13806;DHT22;6974;53.606;9.872;2022-07-23T01:09:00;17.90;99.90
13806;DHT22;6974;53.606;9.872;2022-07-23T01:11:29;17.90;99.90
13806;DHT22;6974;53.606;9.872;2022-07-23T01:13:56;17.90;99.90
13806;DHT22;6974;53.606;9.872;2022-07-23T01:16:23;17.80;99.90
13806;DHT22;6974;53.606;9.872;2022-07-23T01:18:50;17.80;99.90
13806;DHT22;6974;53.606;9.872;2022-07-23T01:21:18;17.80;99.90
13806;DHT22;6974;53.606;9.872;2022-07-23T01:23:46;17.70;99.90
13806;DHT22;6974;53.606;9.872;2022-07-23T01:26:13;17.70;99.90
13806;DHT22;6974;53.606;9.872;2022-07-23T01:28:42;17.70;99.90
13806;DHT22;6974;53.606;9.872;2022-07-23T01:31:09;17.70;99.90
13806;DHT22;6974;53.606;9.872;2022-07-23T01:33:36;17.70;99.90
13806;DHT22;6974;53.606;9.872;2022-07-23T01:36:03;17.70;99.90
13806;DHT22;6974;53.606;9.872;2022-07-23T01:38:30;17.70;99.90
13806;DHT22;6974;53.606;9.872;2022-07-23T01:40:58;17.70;99.90
13806;DHT22;6974;53.606;9.872;2022-07-23T01:43:25;17.80;99.90
13806;DHT22;6974;53.606;9.872;2022-07-23T01:45:52;17.70;99.90
13806;DHT22;6974;53.606;9.872;2022-07-23T01:48:19;17.70;99.90
13806;DHT22;6974;53.606;9.872;2022-07-23T01:50:46;17.80;99.90
13806;DHT22;6974;53.606;9.872;2022-07-23T01:53:13;17.80;99.90
13806;DHT22;6974;53.606;9.872;2022-07-23T01:55:41;17.70;99.90
13806;DHT22;6974;53.606;9.872;2022-07-23T01:58:09;17.70;99.90
13806;DHT22;6974;53.606;9.872;2022-07-23T02:00:36;17.70;99.90
13806;DHT22;6974;53.606;9.872;2022-07-23T02:03:03;17.70;99.90
13806;DHT22;6974;53.606;9.872;2022-07-23T02:05:30;17.70;99.90
13806;DHT22;6974;53.606;9.872;2022-07-23T02:07:57;17.70;99.90
13806;DHT22;6974;53.606;9.872;2022-07-23T02:10:25;17.70;99.90
13806;DHT22;6974;53.606;9.872;2022-07-23T02:12:52;17.70;99.90
13806;DHT22;6974;53.606;9.872;2022-07-23T02:15:20;17.70;99.90
13806;DHT22;6974;53.606;9.872;2022-07-23T02:17:47;17.70;99.90
13806;DHT22;6974;53.606;9.872;2022-07-23T02:20:14;17.60;99.90
13806;DHT22;6974;53.606;9.872;2022-07-23T02:22:41;17.60;99.90
13806;DHT22;6974;53.606;9.872;2022-07-23T02:25:08;17.60;99.90
13806;DHT22;6974;53.606;9.872;2022-07-23T02:27:35;17.60;99.90
13806;DHT22;6974;53.606;9.872;2022-07-23T02:30:03;17.60;99.90
13806;DHT22;6974;53.606;9.872;2022-07-23T02:32:32;17.50;99.90
13806;DHT22;6974;53.606;9.872;2022-07-23T02:34:59;17.50;99.90
13806;DHT22;6974;53.606;9.872;2022-07-23T02:37:26;17.50;99.90
13806;DHT22;6974;53.606;9.872;2022-07-23T02:39:53;17.50;99.90
13806;DHT22;6974;53.606;9.872;2022-07-23T02:42:20;17.40;99.90
13806;DHT22;6974;53.606;9.872;2022-07-23T02:44:47;17.40;99.90
13806;DHT22;6974;53.606;9.872;2022-07-23T02:47:13;17.40;99.90
13806;DHT22;6974;53.606;9.872;2022-07-23T02:49:42;17.40;99.90
13806;DHT22;6974;53.606;9.872;2022-07-23T02:52:08;17.40;99.90
13806;DHT22;6974;53.606;9.872;2022-07-23T02:54:36;17.40;99.90
13806;DHT22;6974;53.606;9.872;2022-07-23T02:57:03;17.40;99.90
13806;DHT22;6974;53.606;9.872;2022-07-23T02:59:30;17.30;99.90
13806;DHT22;6974;53.606;9.872;2022-07-23T03:01:57;17.40;99.90
13806;DHT22;6974;53.606;9.872;2022-07-23T03:04:23;17.40;99.90
13806;DHT22;6974;53.606;9.872;2022-07-23T03:06:52;17.40;99.90
13806;DHT22;6974;53.606;9.872;2022-07-23T03:09:18;17.40;99.90
13806;DHT22;6974;53.606;9.872;2022-07-23T03:11:45;17.40;99.90
13806;DHT22;6974;53.606;9.872;2022-07-23T03:14:12;17.40;99.90
13806;DHT22;6974;53.606;9.872;2022-07-23T03:16:39;17.40;99.90
13806;DHT22;6974;53.606;9.872;2022-07-23T03:19:06;17.40;99.90
13806;DHT22;6974;53.606;9.872;2022-07-23T03:21:33;17.40;99.90
13806;DHT22;6974;53.606;9.872;2022-07-23T03:24:01;17.40;99.90
13806;DHT22;6974;53.606;9.872;2022-07-23T03:26:28;17.40;99.90
13806;DHT22;6974;53.606;9.872;2022-07-23T03:28:55;17.40;99.90
13806;DHT22;6974;53.606;9.872;2022-07-23T03:31:22;17.40;99.90
13806;DHT22;6974;53.606;9.872;2022-07-23T03:33:49;17.40;99.90
13806;DHT22;6974;53.606;9.872;2022-07-23T03:36:15;17.40;99.90
13806;DHT22;6974;53.606;9.872;2022-07-23T03:38:42;17.40;99.90
13806;DHT22;6974;53.606;9.872;2022-07-23T03:41:10;17.40;99.90
13806;DHT22;6974;53.606;9.872;2022-07-23T03:43:37;17.40;99.90
13806;DHT22;6974;53.606;9.872;2022-07-23T03:46:04;17.40;99.90
13806;DHT22;6974;53.606;9.872;2022-07-23T03:48:31;17.30;99.90
13806;DHT22;6974;53.606;9.872;2022-07-23T03:50:58;17.30;99.90
13806;DHT22;6974;53.606;9.872;2022-07-23T03:53:25;17.30;99.90
13806;DHT22;6974;53.606;9.872;2022-07-23T03:55:52;17.30;99.90
13806;DHT22;6974;53.606;9.872;2022-07-23T03:58:20;17.30;99.90
13806;DHT22;6974;53.606;9.872;2022-07-23T04:00:47;17.30;99.90
13806;DHT22;6974;53.606;9.872;2022-07-23T04:03:13;17.30;99.90
13806;DHT22;6974;53.606;9.872;2022-07-23T04:05:40;17.30;99.90
13806;DHT22;6974;53.606;9.872;2022-07-23T04:08:07;17.30;99.90
13806;DHT22;6974;53.606;9.872;2022-07-23T04:10:34;17.30;99.90
13806;DHT22;6974;53.606;9.872;2022-07-23T04:13:01;17.30;99.90
13806;DHT22;6974;53.606;9.872;2022-07-23T04:15:29;17.40;99.90
13806;DHT22;6974;53.606;9.872;2022-07-23T04:17:56;17.40;99.90
13806;DHT22;6974;53.606;9.872;2022-07-23T04:20:22;17.40;99.90
13806;DHT22;6974;53.606;9.872;2022-07-23T04:22:49;17.40;99.90
13806;DHT22;6974;53.606;9.872;2022-07-23T04:25:16;17.40;99.90
13806;DHT22;6974;53.606;9.872;2022-07-23T04:27:43;17.40;99.90
13806;DHT22;6974;53.606;9.872;2022-07-23T04:30:10;17.40;99.90
13806;DHT22;6974;53.606;9.872;2022-07-23T04:32:38;17.40;99.90
13806;DHT22;6974;53.606;9.872;2022-07-23T04:35:05;17.40;99.90
13806;DHT22;6974;53.606;9.872;2022-07-23T04:37:32;17.40;99.90
13806;DHT22;6974;53.606;9.872;2022-07-23T04:39:59;17.30;99.90
13806;DHT22;6974;53.606;9.872;2022-07-23T04:42:26;17.30;99.90
13806;DHT22;6974;53.606;9.872;2022-07-23T04:44:52;17.30;99.90
13806;DHT22;6974;53.606;9.872;2022-07-23T04:47:19;17.20;99.90
13806;DHT22;6974;53.606;9.872;2022-07-23T04:49:47;17.20;99.90
13806;DHT22;6974;53.606;9.872;2022-07-23T04:52:14;17.20;99.90
13806;DHT22;6974;53.606;9.872;2022-07-23T04:54:41;17.20;99.90
13806;DHT22;6974;53.606;9.872;2022-07-23T04:57:08;17.20;99.90
13806;DHT22;6974;53.606;9.872;2022-07-23T04:59:35;17.20;99.90
13806;DHT22;6974;53.606;9.872;2022-07-23T05:02:01;17.20;99.90
13806;DHT22;6974;53.606;9.872;2022-07-23T05:04:28;17.20;99.90
13806;DHT22;6974;53.606;9.872;2022-07-23T05:06:58;17.20;99.90
13806;DHT22;6974;53.606;9.872;2022-07-23T05:09:25;17.20;99.90
13806;DHT22;6974;53.606;9.872;2022-07-23T05:11:52;17.30;99.90
13806;DHT22;6974;53.606;9.872;2022-07-23T05:14:19;17.30;99.90
13806;DHT22;6974;53.606;9.872;2022-07-23T05:16:45;17.30;99.90
13806;DHT22;6974;53.606;9.872;2022-07-23T05:19:12;17.30;99.90
13806;DHT22;6974;53.606;9.872;2022-07-23T05:21:39;17.30;99.90
13806;DHT22;6974;53.606;9.872;2022-07-23T05:24:07;17.30;99.90
13806;DHT22;6974;53.606;9.872;2022-07-23T05:26:34;17.40;99.90
13806;DHT22;6974;53.606;9.872;2022-07-23T05:29:01;17.40;99.90
13806;DHT22;6974;53.606;9.872;2022-07-23T05:31:28;17.40;99.90
13806;DHT22;6974;53.606;9.872;2022-07-23T05:33:55;17.40;99.90
13806;DHT22;6974;53.606;9.872;2022-07-23T05:36:22;17.40;99.90
13806;DHT22;6974;53.606;9.872;2022-07-23T05:38:48;17.40;99.90
13806;DHT22;6974;53.606;9.872;2022-07-23T05:41:16;17.50;99.90
13806;DHT22;6974;53.606;9.872;2022-07-23T05:43:43;17.50;99.90
13806;DHT22;6974;53.606;9.872;2022-07-23T05:46:10;17.50;99.90
13806;DHT22;6974;53.606;9.872;2022-07-23T05:48:37;17.50;99.90
13806;DHT22;6974;53.606;9.872;2022-07-23T05:51:04;17.50;99.90
13806;DHT22;6974;53.606;9.872;2022-07-23T05:53:32;17.60;99.90
13806;DHT22;6974;53.606;9.872;2022-07-23T05:55:59;17.60;99.90
13806;DHT22;6974;53.606;9.872;2022-07-23T05:58:27;17.60;99.90
13806;DHT22;6974;53.606;9.872;2022-07-23T06:00:54;17.60;99.90
13806;DHT22;6974;53.606;9.872;2022-07-23T06:03:21;17.70;99.90
13806;DHT22;6974;53.606;9.872;2022-07-23T06:05:48;17.70;99.90
13806;DHT22;6974;53.606;9.872;2022-07-23T06:08:15;17.70;99.90
13806;DHT22;6974;53.606;9.872;2022-07-23T06:10:41;17.70;99.90
13806;DHT22;6974;53.606;9.872;2022-07-23T06:13:08;17.70;99.90
13806;DHT22;6974;53.606;9.872;2022-07-23T06:15:36;17.80;99.90
13806;DHT22;6974;53.606;9.872;2022-07-23T06:18:03;17.80;99.90
13806;DHT22;6974;53.606;9.872;2022-07-23T06:20:30;17.80;99.90
13806;DHT22;6974;53.606;9.872;2022-07-23T06:22:57;17.80;99.90
13806;DHT22;6974;53.606;9.872;2022-07-23T06:25:24;17.80;99.90
13806;DHT22;6974;53.606;9.872;2022-07-23T06:27:51;17.80;99.90
13806;DHT22;6974;53.606;9.872;2022-07-23T06:30:18;17.80;99.90
13806;DHT22;6974;53.606;9.872;2022-07-23T06:32:46;17.80;99.90
13806;DHT22;6974;53.606;9.872;2022-07-23T06:35:13;17.70;99.90
13806;DHT22;6974;53.606;9.872;2022-07-23T06:37:40;17.80;99.90
13806;DHT22;6974;53.606;9.872;2022-07-23T06:40:08;17.80;99.90
13806;DHT22;6974;53.606;9.872;2022-07-23T06:42:35;17.90;99.90
13806;DHT22;6974;53.606;9.872;2022-07-23T06:45:05;17.90;99.90
13806;DHT22;6974;53.606;9.872;2022-07-23T06:47:32;17.90;99.90
13806;DHT22;6974;53.606;9.872;2022-07-23T06:50:01;17.90;99.90
13806;DHT22;6974;53.606;9.872;2022-07-23T06:52:28;17.90;99.90
13806;DHT22;6974;53.606;9.872;2022-07-23T06:54:54;18.00;99.90
13806;DHT22;6974;53.606;9.872;2022-07-23T06:57:21;18.00;99.90
13806;DHT22;6974;53.606;9.872;2022-07-23T06:59:49;18.00;99.90
13806;DHT22;6974;53.606;9.872;2022-07-23T07:02:15;18.00;99.90
13806;DHT22;6974;53.606;9.872;2022-07-23T07:04:42;17.80;99.90
13806;DHT22;6974;53.606;9.872;2022-07-23T07:07:11;17.70;99.90
13806;DHT22;6974;53.606;9.872;2022-07-23T07:09:38;17.50;99.90
13806;DHT22;6974;53.606;9.872;2022-07-23T07:12:05;17.30;99.90
13806;DHT22;6974;53.606;9.872;2022-07-23T07:14:32;17.30;99.90
13806;DHT22;6974;53.606;9.872;2022-07-23T07:16:59;17.20;99.90
13806;DHT22;6974;53.606;9.872;2022-07-23T07:19:26;17.30;99.90
13806;DHT22;6974;53.606;9.872;2022-07-23T07:21:52;17.30;99.90
13806;DHT22;6974;53.606;9.872;2022-07-23T07:24:21;17.30;99.90
13806;DHT22;6974;53.606;9.872;2022-07-23T07:26:48;17.50;99.90
13806;DHT22;6974;53.606;9.872;2022-07-23T07:29:15;17.50;99.90
13806;DHT22;6974;53.606;9.872;2022-07-23T07:31:42;17.60;99.90
13806;DHT22;6974;53.606;9.872;2022-07-23T07:34:09;17.60;99.90
13806;DHT22;6974;53.606;9.872;2022-07-23T07:36:36;17.60;99.90
13806;DHT22;6974;53.606;9.872;2022-07-23T07:39:03;17.60;99.90
13806;DHT22;6974;53.606;9.872;2022-07-23T07:41:31;17.70;99.90
13806;DHT22;6974;53.606;9.872;2022-07-23T07:43:58;17.80;99.90
13806;DHT22;6974;53.606;9.872;2022-07-23T07:46:25;17.90;99.90
13806;DHT22;6974;53.606;9.872;2022-07-23T07:48:53;18.00;99.90
13806;DHT22;6974;53.606;9.872;2022-07-23T07:51:20;18.00;99.90
13806;DHT22;6974;53.606;9.872;2022-07-23T07:53:46;18.10;99.90
13806;DHT22;6974;53.606;9.872;2022-07-23T07:56:13;18.10;99.90
13806;DHT22;6974;53.606;9.872;2022-07-23T07:58:41;18.00;99.90
13806;DHT22;6974;53.606;9.872;2022-07-23T08:01:08;17.90;99.90
13806;DHT22;6974;53.606;9.872;2022-07-23T08:03:35;17.80;99.90
13806;DHT22;6974;53.606;9.872;2022-07-23T08:06:02;17.70;99.90
13806;DHT22;6974;53.606;9.872;2022-07-23T08:08:28;17.70;99.90
13806;DHT22;6974;53.606;9.872;2022-07-23T08:10:55;17.70;99.90
13806;DHT22;6974;53.606;9.872;2022-07-23T08:13:22;17.70;99.90
13806;DHT22;6974;53.606;9.872;2022-07-23T08:15:50;17.70;99.90
13806;DHT22;6974;53.606;9.872;2022-07-23T08:18:18;17.80;99.90
13806;DHT22;6974;53.606;9.872;2022-07-23T08:20:45;17.80;99.90
13806;DHT22;6974;53.606;9.872;2022-07-23T08:23:12;17.90;99.90
13806;DHT22;6974;53.606;9.872;2022-07-23T08:25:40;18.00;99.90
13806;DHT22;6974;53.606;9.872;2022-07-23T08:28:09;18.10;99.90
13806;DHT22;6974;53.606;9.872;2022-07-23T08:30:37;18.10;99.90
13806;DHT22;6974;53.606;9.872;2022-07-23T08:33:07;18.20;99.90
13806;DHT22;6974;53.606;9.872;2022-07-23T08:35:38;18.30;99.90
13806;DHT22;6974;53.606;9.872;2022-07-23T08:38:06;18.40;99.90
13806;DHT22;6974;53.606;9.872;2022-07-23T08:40:35;18.50;99.90
13806;DHT22;6974;53.606;9.872;2022-07-23T08:43:05;18.60;99.90
13806;DHT22;6974;53.606;9.872;2022-07-23T08:45:36;18.70;99.90
13806;DHT22;6974;53.606;9.872;2022-07-23T08:48:05;18.70;99.90
13806;DHT22;6974;53.606;9.872;2022-07-23T08:50:35;18.90;99.90
13806;DHT22;6974;53.606;9.872;2022-07-23T08:53:05;18.90;99.90
13806;DHT22;6974;53.606;9.872;2022-07-23T08:55:32;18.90;99.90
13806;DHT22;6974;53.606;9.872;2022-07-23T08:57:59;18.90;99.90
13806;DHT22;6974;53.606;9.872;2022-07-23T09:00:27;18.90;99.90
13806;DHT22;6974;53.606;9.872;2022-07-23T09:02:54;19.00;99.90
13806;DHT22;6974;53.606;9.872;2022-07-23T09:05:22;19.20;99.90
13806;DHT22;6974;53.606;9.872;2022-07-23T09:08:09;19.40;99.90
13806;DHT22;6974;53.606;9.872;2022-07-23T09:10:47;19.50;99.90
13806;DHT22;6974;53.606;9.872;2022-07-23T09:13:33;19.70;99.90
13806;DHT22;6974;53.606;9.872;2022-07-23T09:16:03;19.80;99.90
13806;DHT22;6974;53.606;9.872;2022-07-23T09:18:42;19.80;99.90
13806;DHT22;6974;53.606;9.872;2022-07-23T09:21:23;19.90;99.90
13806;DHT22;6974;53.606;9.872;2022-07-23T09:23:57;19.90;99.90
13806;DHT22;6974;53.606;9.872;2022-07-23T09:26:32;20.00;99.90
13806;DHT22;6974;53.606;9.872;2022-07-23T09:29:03;20.00;99.90
13806;DHT22;6974;53.606;9.872;2022-07-23T09:33:25;20.00;99.90
13806;DHT22;6974;53.606;9.872;2022-07-23T09:35:54;20.00;99.90
13806;DHT22;6974;53.606;9.872;2022-07-23T09:38:23;19.90;99.90
13806;DHT22;6974;53.606;9.872;2022-07-23T09:41:05;19.80;99.90
13806;DHT22;6974;53.606;9.872;2022-07-23T09:43:32;19.80;99.90
13806;DHT22;6974;53.606;9.872;2022-07-23T09:46:20;19.90;99.90
13806;DHT22;6974;53.606;9.872;2022-07-23T09:48:50;20.00;99.90
13806;DHT22;6974;53.606;9.872;2022-07-23T09:51:18;19.90;99.90
13806;DHT22;6974;53.606;9.872;2022-07-23T09:53:49;19.90;99.90
13806;DHT22;6974;53.606;9.872;2022-07-23T09:56:17;19.80;99.90
13806;DHT22;6974;53.606;9.872;2022-07-23T09:58:46;19.70;99.90
13806;DHT22;6974;53.606;9.872;2022-07-23T10:01:16;19.70;99.90
13806;DHT22;6974;53.606;9.872;2022-07-23T10:03:43;19.70;99.90
13806;DHT22;6974;53.606;9.872;2022-07-23T10:06:13;19.60;99.90
13806;DHT22;6974;53.606;9.872;2022-07-23T10:08:41;19.60;99.90
13806;DHT22;6974;53.606;9.872;2022-07-23T10:11:10;19.80;99.90
13806;DHT22;6974;53.606;9.872;2022-07-23T10:13:38;19.90;99.90
13806;DHT22;6974;53.606;9.872;2022-07-23T10:16:20;20.00;99.90
13806;DHT22;6974;53.606;9.872;2022-07-23T10:18:47;20.00;99.90
13806;DHT22;6974;53.606;9.872;2022-07-23T10:21:20;20.10;99.90
13806;DHT22;6974;53.606;9.872;2022-07-23T10:24:01;20.30;99.90
13806;DHT22;6974;53.606;9.872;2022-07-23T10:26:35;20.30;99.90
13806;DHT22;6974;53.606;9.872;2022-07-23T10:29:13;20.40;99.90
13806;DHT22;6974;53.606;9.872;2022-07-23T10:31:58;20.50;99.90
13806;DHT22;6974;53.606;9.872;2022-07-23T10:34:36;20.50;99.90
13806;DHT22;6974;53.606;9.872;2022-07-23T10:37:16;20.60;99.90
13806;DHT22;6974;53.606;9.872;2022-07-23T10:40:13;20.60;99.90
13806;DHT22;6974;53.606;9.872;2022-07-23T10:42:59;20.60;99.90
13806;DHT22;6974;53.606;9.872;2022-07-23T10:45:32;20.70;99.90
13806;DHT22;6974;53.606;9.872;2022-07-23T10:48:13;20.70;99.90
13806;DHT22;6974;53.606;9.872;2022-07-23T10:50:41;20.70;99.90
13806;DHT22;6974;53.606;9.872;2022-07-23T10:53:12;20.70;99.90
13806;DHT22;6974;53.606;9.872;2022-07-23T10:55:51;20.80;99.90
13806;DHT22;6974;53.606;9.872;2022-07-23T10:58:21;20.80;99.90
13806;DHT22;6974;53.606;9.872;2022-07-23T11:00:49;20.80;99.90
13806;DHT22;6974;53.606;9.872;2022-07-23T11:03:30;20.70;99.90
13806;DHT22;6974;53.606;9.872;2022-07-23T11:05:58;20.60;99.90
13806;DHT22;6974;53.606;9.872;2022-07-23T11:08:27;20.30;99.90
13806;DHT22;6974;53.606;9.872;2022-07-23T11:10:57;20.20;99.90
13806;DHT22;6974;53.606;9.872;2022-07-23T11:13:47;20.20;99.90
13806;DHT22;6974;53.606;9.872;2022-07-23T11:16:24;20.20;99.90
13806;DHT22;6974;53.606;9.872;2022-07-23T11:19:07;20.20;99.90
13806;DHT22;6974;53.606;9.872;2022-07-23T11:21:45;20.30;99.90
13806;DHT22;6974;53.606;9.872;2022-07-23T11:24:18;20.40;99.90
13806;DHT22;6974;53.606;9.872;2022-07-23T11:27:01;20.50;99.90
13806;DHT22;6974;53.606;9.872;2022-07-23T11:29:39;20.60;99.90
13806;DHT22;6974;53.606;9.872;2022-07-23T11:32:08;20.60;99.90
13806;DHT22;6974;53.606;9.872;2022-07-23T11:34:39;20.50;99.90
13806;DHT22;6974;53.606;9.872;2022-07-23T11:37:07;20.40;99.90
13806;DHT22;6974;53.606;9.872;2022-07-23T11:39:37;20.40;99.90
13806;DHT22;6974;53.606;9.872;2022-07-23T11:42:08;20.40;99.90
13806;DHT22;6974;53.606;9.872;2022-07-23T11:44:36;20.30;99.90
13806;DHT22;6974;53.606;9.872;2022-07-23T11:47:05;20.20;99.90
13806;DHT22;6974;53.606;9.872;2022-07-23T11:49:33;20.20;99.90
13806;DHT22;6974;53.606;9.872;2022-07-23T11:52:04;20.10;99.90
13806;DHT22;6974;53.606;9.872;2022-07-23T11:54:31;20.00;99.90
13806;DHT22;6974;53.606;9.872;2022-07-23T11:57:00;19.90;99.90
13806;DHT22;6974;53.606;9.872;2022-07-23T11:59:32;19.90;99.90
13806;DHT22;6974;53.606;9.872;2022-07-23T12:02:02;19.90;99.90
13806;DHT22;6974;53.606;9.872;2022-07-23T12:04:37;19.90;99.90
13806;DHT22;6974;53.606;9.872;2022-07-23T12:09:47;19.80;99.90
13806;DHT22;6974;53.606;9.872;2022-07-23T12:12:15;19.70;99.90
13806;DHT22;6974;53.606;9.872;2022-07-23T12:14:48;19.70;99.90
13806;DHT22;6974;53.606;9.872;2022-07-23T12:17:15;19.60;99.90
13806;DHT22;6974;53.606;9.872;2022-07-23T12:19:42;19.60;99.90
13806;DHT22;6974;53.606;9.872;2022-07-23T12:22:09;19.70;99.90
13806;DHT22;6974;53.606;9.872;2022-07-23T12:24:54;19.80;99.90
13806;DHT22;6974;53.606;9.872;2022-07-23T12:27:24;20.00;99.90
13806;DHT22;6974;53.606;9.872;2022-07-23T12:29:51;20.10;99.90
13806;DHT22;6974;53.606;9.872;2022-07-23T12:32:20;20.20;99.90
13806;DHT22;6974;53.606;9.872;2022-07-23T12:34:49;20.30;99.90
13806;DHT22;6974;53.606;9.872;2022-07-23T12:37:30;20.30;99.90
13806;DHT22;6974;53.606;9.872;2022-07-23T12:39:57;20.20;99.90
13806;DHT22;6974;53.606;9.872;2022-07-23T12:42:25;20.20;99.90
13806;DHT22;6974;53.606;9.872;2022-07-23T12:45:07;20.10;99.90
13806;DHT22;6974;53.606;9.872;2022-07-23T12:47:58;20.20;99.90
13806;DHT22;6974;53.606;9.872;2022-07-23T12:50:53;20.30;99.90
13806;DHT22;6974;53.606;9.872;2022-07-23T12:53:22;20.40;99.90
13806;DHT22;6974;53.606;9.872;2022-07-23T12:55:50;20.30;99.90
13806;DHT22;6974;53.606;9.872;2022-07-23T12:58:20;20.40;99.90
13806;DHT22;6974;53.606;9.872;2022-07-23T13:01:04;20.40;99.90
13806;DHT22;6974;53.606;9.872;2022-07-23T13:03:34;20.50;99.90
13806;DHT22;6974;53.606;9.872;2022-07-23T13:06:04;20.60;99.90
13806;DHT22;6974;53.606;9.872;2022-07-23T13:08:32;20.70;99.90
13806;DHT22;6974;53.606;9.872;2022-07-23T13:11:00;20.60;99.90
13806;DHT22;6974;53.606;9.872;2022-07-23T13:13:29;20.50;99.90
13806;DHT22;6974;53.606;9.872;2022-07-23T13:15:57;20.40;99.90
13806;DHT22;6974;53.606;9.872;2022-07-23T13:18:25;20.30;99.90
13806;DHT22;6974;53.606;9.872;2022-07-23T13:20:52;20.30;99.90
13806;DHT22;6974;53.606;9.872;2022-07-23T13:23:19;20.40;99.90
13806;DHT22;6974;53.606;9.872;2022-07-23T13:25:47;20.40;99.90
13806;DHT22;6974;53.606;9.872;2022-07-23T13:28:14;20.40;99.90
13806;DHT22;6974;53.606;9.872;2022-07-23T13:30:43;20.40;99.90
13806;DHT22;6974;53.606;9.872;2022-07-23T13:33:11;20.40;99.90
13806;DHT22;6974;53.606;9.872;2022-07-23T13:35:38;20.40;99.90
13806;DHT22;6974;53.606;9.872;2022-07-23T13:38:06;20.30;99.90
13806;DHT22;6974;53.606;9.872;2022-07-23T13:40:34;20.40;99.90
13806;DHT22;6974;53.606;9.872;2022-07-23T13:43:01;20.40;99.90
13806;DHT22;6974;53.606;9.872;2022-07-23T13:45:28;20.60;99.90
13806;DHT22;6974;53.606;9.872;2022-07-23T13:47:56;20.60;99.90
13806;DHT22;6974;53.606;9.872;2022-07-23T13:50:23;20.60;99.90
13806;DHT22;6974;53.606;9.872;2022-07-23T13:52:50;20.60;99.90
13806;DHT22;6974;53.606;9.872;2022-07-23T13:55:17;20.50;99.90
13806;DHT22;6974;53.606;9.872;2022-07-23T13:57:44;20.30;99.90
13806;DHT22;6974;53.606;9.872;2022-07-23T14:00:11;20.10;99.90
13806;DHT22;6974;53.606;9.872;2022-07-23T14:02:40;20.10;99.90
13806;DHT22;6974;53.606;9.872;2022-07-23T14:05:10;20.10;99.90
13806;DHT22;6974;53.606;9.872;2022-07-23T14:07:38;20.20;99.90
13806;DHT22;6974;53.606;9.872;2022-07-23T14:10:06;20.20;99.90
13806;DHT22;6974;53.606;9.872;2022-07-23T14:12:33;20.20;99.90
13806;DHT22;6974;53.606;9.872;2022-07-23T14:15:00;20.20;99.90
13806;DHT22;6974;53.606;9.872;2022-07-23T14:17:27;20.40;99.90
13806;DHT22;6974;53.606;9.872;2022-07-23T14:19:54;20.60;99.90
13806;DHT22;6974;53.606;9.872;2022-07-23T14:22:22;20.70;99.90
13806;DHT22;6974;53.606;9.872;2022-07-23T14:24:58;20.70;99.90
13806;DHT22;6974;53.606;9.872;2022-07-23T14:27:26;20.70;99.90
13806;DHT22;6974;53.606;9.872;2022-07-23T14:29:54;20.60;99.90
13806;DHT22;6974;53.606;9.872;2022-07-23T14:32:21;20.60;99.90
13806;DHT22;6974;53.606;9.872;2022-07-23T14:34:48;20.50;99.90
13806;DHT22;6974;53.606;9.872;2022-07-23T14:37:16;20.40;99.90
13806;DHT22;6974;53.606;9.872;2022-07-23T14:39:45;20.50;99.90
13806;DHT22;6974;53.606;9.872;2022-07-23T14:42:12;20.50;99.90
13806;DHT22;6974;53.606;9.872;2022-07-23T14:44:39;20.60;99.90
13806;DHT22;6974;53.606;9.872;2022-07-23T14:47:07;20.50;99.90
13806;DHT22;6974;53.606;9.872;2022-07-23T14:49:35;20.40;99.90
13806;DHT22;6974;53.606;9.872;2022-07-23T14:52:02;20.40;99.90
13806;DHT22;6974;53.606;9.872;2022-07-23T14:54:30;20.40;99.90
13806;DHT22;6974;53.606;9.872;2022-07-23T14:56:59;20.50;99.90
13806;DHT22;6974;53.606;9.872;2022-07-23T14:59:28;20.70;99.90
13806;DHT22;6974;53.606;9.872;2022-07-23T15:01:56;20.70;99.90
13806;DHT22;6974;53.606;9.872;2022-07-23T15:04:23;20.70;99.90
13806;DHT22;6974;53.606;9.872;2022-07-23T15:06:50;20.70;99.90
13806;DHT22;6974;53.606;9.872;2022-07-23T15:09:17;20.60;99.90
13806;DHT22;6974;53.606;9.872;2022-07-23T15:11:44;20.60;99.90
13806;DHT22;6974;53.606;9.872;2022-07-23T15:14:12;20.50;99.90
13806;DHT22;6974;53.606;9.872;2022-07-23T15:16:39;20.40;99.90
13806;DHT22;6974;53.606;9.872;2022-07-23T15:19:06;20.30;99.90
13806;DHT22;6974;53.606;9.872;2022-07-23T15:21:33;20.30;99.90
13806;DHT22;6974;53.606;9.872;2022-07-23T15:23:59;20.40;99.90
13806;DHT22;6974;53.606;9.872;2022-07-23T15:26:27;20.50;99.90
13806;DHT22;6974;53.606;9.872;2022-07-23T15:28:54;20.70;99.90
13806;DHT22;6974;53.606;9.872;2022-07-23T15:31:22;20.90;99.90
13806;DHT22;6974;53.606;9.872;2022-07-23T15:33:50;21.10;99.90
13806;DHT22;6974;53.606;9.872;2022-07-23T15:36:17;21.10;99.90
13806;DHT22;6974;53.606;9.872;2022-07-23T15:38:44;21.20;99.90
13806;DHT22;6974;53.606;9.872;2022-07-23T15:41:11;21.10;99.90
13806;DHT22;6974;53.606;9.872;2022-07-23T15:43:38;21.00;99.90
13806;DHT22;6974;53.606;9.872;2022-07-23T15:46:05;21.00;99.90
13806;DHT22;6974;53.606;9.872;2022-07-23T15:48:35;20.90;99.90
13806;DHT22;6974;53.606;9.872;2022-07-23T15:51:02;20.80;99.90
13806;DHT22;6974;53.606;9.872;2022-07-23T15:53:29;20.60;99.90
13806;DHT22;6974;53.606;9.872;2022-07-23T15:55:56;20.60;99.90
13806;DHT22;6974;53.606;9.872;2022-07-23T15:58:23;20.50;99.90